KMVE

Montevideo-Chippewa County Airport

Montevideo, Minnesota, USA
METAR KMVE 190555Z AUTO 03009KT 10SM SCT055 SCT080 OVC090 M17/M23 A3042 RMK AO2
Observed Flight Rules
Jan-19 @ 05:55 UTC (26 minutes ago) Visual Flight Rules
Wind Visibility Clouds
30° at 9 knots 10 miles
  • Scattered at 5,500' AGL
  • Scattered at 8,000' AGL
  • Overcast at 9,000' AGL
Temperatures Readings
Current -17°C / 1°F
Dewpoint -23°C / -9°F
Humidity 60%
Altimeter 30.42" Hg
Pressure 1030.11 hPa
Elevation 315
METAR KMVE 190555Z AUTO 03009KT 10SM SCT055 SCT080 OVC090 M17/M23 A3042 RMK AO2
Observed Flight Rules
Jan-19 @ 05:55 UTC
(26 minutes ago)
VFR
Wind Visibility
30° at 9 knots 10 miles
Clouds
  • Scattered at 5,500' AGL
  • Scattered at 8,000' AGL
  • Overcast at 9,000' AGL
Temperature Dewpoint
-17°C / 1°F -23°C / -9°F
Humidity Altimeter Pressure
60% 30.42" Hg 1030.11 hPa